Time;durP1;ratioP1;P1;durP2;ratioP2;P2;SDS_P1;SDS_P2;PMS_P1;PMS_P2;Temp;Humidity;BMP_temperature;BMP_pressure;BME280_temperature;BME280_humidity;BME280_pressure;Samples;Min_cycle;Max_cycle;Signal;HPM_P1;HPM_P2
2021/10/12 00:00:49;;;;;;;4.10;2.40;;;12.20;99.90;;;;;;5000384;28;20228;-69
2021/10/12 00:03:16;;;;;;;5.82;2.80;;;12.20;99.90;;;;;;5000651;28;20226;-69
2021/10/12 00:05:43;;;;;;;3.83;2.70;;;12.20;99.90;;;;;;4994095;28;20741;-69
2021/10/12 00:08:10;;;;;;;2.85;2.30;;;12.20;99.90;;;;;;5007699;28;20684;-69
2021/10/12 00:10:38;;;;;;;6.63;3.28;;;12.20;99.90;;;;;;4993827;28;20288;-69
2021/10/12 00:13:06;;;;;;;5.07;3.60;;;12.20;99.90;;;;;;4994749;28;20621;-69
2021/10/12 00:15:33;;;;;;;6.18;3.80;;;12.10;99.90;;;;;;5013374;28;20220;-69
2021/10/12 00:18:00;;;;;;;9.70;4.25;;;12.10;99.90;;;;;;4999771;28;20280;-69
2021/10/12 00:20:27;;;;;;;7.90;4.07;;;12.10;99.90;;;;;;4993743;28;20225;-69
2021/10/12 00:22:54;;;;;;;6.22;3.17;;;12.10;99.90;;;;;;5008413;28;20236;-69
2021/10/12 00:25:21;;;;;;;8.00;3.45;;;12.10;99.90;;;;;;5018429;28;20767;-69
2021/10/12 00:27:49;;;;;;;3.22;2.50;;;12.10;99.90;;;;;;4997961;28;20591;-69
2021/10/12 00:30:17;;;;;;;7.40;3.15;;;12.00;99.90;;;;;;4997132;28;20749;-69
2021/10/12 00:32:43;;;;;;;4.60;2.80;;;12.00;99.90;;;;;;4993336;28;20225;-69
2021/10/12 00:35:10;;;;;;;8.48;5.53;;;12.00;99.90;;;;;;4993994;28;20225;-69
2021/10/12 00:37:38;;;;;;;6.82;3.95;;;12.00;99.90;;;;;;5006403;28;20264;-70
2021/10/12 00:40:06;;;;;;;5.43;2.90;;;12.00;99.90;;;;;;4993759;28;20573;-69
2021/10/12 00:42:33;;;;;;;9.98;3.83;;;12.00;99.90;;;;;;4997789;28;20221;-69
2021/10/12 00:45:03;;;;;;;3.65;3.00;;;12.00;99.90;;;;;;5000691;28;20230;-70
2021/10/12 00:47:30;;;;;;;4.43;2.40;;;12.00;99.90;;;;;;5006089;28;20264;-69
2021/10/12 00:49:57;;;;;;;7.90;3.10;;;12.00;99.90;;;;;;5012151;28;20237;-69
2021/10/12 00:52:24;;;;;;;4.55;2.50;;;12.00;99.90;;;;;;4996881;28;20695;-70
2021/10/12 00:54:51;;;;;;;3.50;2.33;;;11.90;99.90;;;;;;4993097;28;20633;-68
2021/10/12 00:57:18;;;;;;;3.92;2.13;;;11.90;99.90;;;;;;4993489;28;20287;-69
2021/10/12 00:59:45;;;;;;;71.22;54.65;;;11.90;99.90;;;;;;5006888;28;20228;-69
2021/10/12 01:02:13;;;;;;;19.25;13.10;;;12.00;99.90;;;;;;5006284;28;20229;-69
2021/10/12 01:04:40;;;;;;;6.28;3.42;;;12.00;99.90;;;;;;4993017;28;20252;-70
2021/10/12 01:07:07;;;;;;;4.07;2.60;;;12.10;99.90;;;;;;5006379;28;20259;-69
2021/10/12 01:09:34;;;;;;;8.13;3.00;;;12.00;99.90;;;;;;4993436;28;20306;-70
2021/10/12 01:12:01;;;;;;;8.77;3.30;;;12.00;99.90;;;;;;5000193;28;20688;-69
2021/10/12 01:14:28;;;;;;;7.55;3.53;;;12.00;99.90;;;;;;5001524;28;20684;-69
2021/10/12 01:16:55;;;;;;;5.57;2.63;;;12.00;99.90;;;;;;4999438;28;20229;-68
2021/10/12 01:19:23;;;;;;;9.73;3.85;;;12.00;99.90;;;;;;5000570;28;20230;-68
2021/10/12 01:21:52;;;;;;;7.18;4.03;;;12.00;99.90;;;;;;5000541;28;20273;-68
2021/10/12 01:24:19;;;;;;;6.50;3.25;;;11.90;99.90;;;;;;5000514;28;20271;-69
2021/10/12 01:26:46;;;;;;;4.68;3.28;;;11.90;99.90;;;;;;5000435;28;20255;-68
2021/10/12 01:29:15;;;;;;;8.90;4.30;;;11.90;99.90;;;;;;5000771;28;20242;-69
2021/10/12 01:31:44;;;;;;;7.35;3.65;;;11.90;99.90;;;;;;4997129;28;20620;-68
2021/10/12 01:34:12;;;;;;;5.22;3.20;;;11.90;99.90;;;;;;5003259;28;20252;-68
2021/10/12 01:36:39;;;;;;;6.25;3.20;;;11.90;99.90;;;;;;4998945;28;20224;-69
2021/10/12 01:39:08;;;;;;;7.63;3.22;;;11.90;99.90;;;;;;5002499;28;20572;-69
2021/10/12 01:41:34;;;;;;;6.75;3.33;;;11.90;99.90;;;;;;5005648;28;20224;-69
2021/10/12 01:44:01;;;;;;;11.30;3.20;;;11.80;99.90;;;;;;5003269;28;20294;-69
2021/10/12 01:46:28;;;;;;;3.65;2.95;;;11.80;99.90;;;;;;5010212;28;20221;-69
2021/10/12 01:48:55;;;;;;;98.15;70.68;;;11.80;99.90;;;;;;5001199;28;20262;-69
2021/10/12 01:51:22;;;;;;;48.88;35.05;;;11.80;99.90;;;;;;5004982;28;20247;-69
2021/10/12 01:53:49;;;;;;;12.07;6.80;;;11.90;99.90;;;;;;5012036;28;20230;-69
2021/10/12 01:56:18;;;;;;;5.40;4.10;;;11.90;99.90;;;;;;5012734;28;20728;-69
2021/10/12 01:58:50;;;;;;;7.22;3.40;;;11.90;99.90;;;;;;5014108;28;20251;-69
2021/10/12 02:01:20;;;;;;;8.02;3.28;;;11.90;99.90;;;;;;5016527;28;20226;-69
2021/10/12 02:03:47;;;;;;;5.15;3.22;;;11.90;99.90;;;;;;5016243;28;20309;-69
2021/10/12 02:06:14;;;;;;;6.97;3.10;;;11.80;99.90;;;;;;5016274;28;20221;-69
2021/10/12 02:08:41;;;;;;;4.75;2.92;;;11.80;99.90;;;;;;5015990;28;20255;-69
2021/10/12 02:11:08;;;;;;;5.30;2.78;;;11.80;99.90;;;;;;5016405;28;20676;-69
2021/10/12 02:13:37;;;;;;;3.15;2.20;;;11.70;99.90;;;;;;5015637;28;20225;-69
2021/10/12 02:16:04;;;;;;;6.72;2.97;;;11.80;99.90;;;;;;5016387;28;20221;-69
2021/10/12 02:18:31;;;;;;;8.82;3.13;;;11.80;99.90;;;;;;5016122;28;20680;-69
2021/10/12 02:20:58;;;;;;;148.70;102.72;;;11.70;99.90;;;;;;5014787;28;20286;-69
2021/10/12 02:23:27;;;;;;;11.73;8.35;;;11.90;99.90;;;;;;5015779;28;20248;-69
2021/10/12 02:25:54;;;;;;;8.30;3.72;;;12.20;99.90;;;;;;5013640;28;20228;-69
2021/10/12 02:28:21;;;;;;;5.90;2.90;;;12.30;99.90;;;;;;5014553;28;20229;-69
2021/10/12 02:30:49;;;;;;;5.15;2.75;;;12.40;99.90;;;;;;5015100;28;20265;-69
2021/10/12 02:33:17;;;;;;;6.80;2.13;;;12.40;99.90;;;;;;5015557;28;20298;-69
2021/10/12 02:35:43;;;;;;;7.07;3.50;;;12.30;99.90;;;;;;5015188;28;20744;-68
2021/10/12 02:38:10;;;;;;;4.97;2.13;;;12.30;99.90;;;;;;5015749;28;20298;-68
2021/10/12 02:40:37;;;;;;;3.72;2.28;;;12.30;99.90;;;;;;5015077;28;20299;-68
2021/10/12 02:43:04;;;;;;;4.47;2.60;;;12.20;99.90;;;;;;5015658;28;20287;-68
2021/10/12 02:45:31;;;;;;;4.28;2.70;;;12.20;99.90;;;;;;5015694;28;20285;-69
2021/10/12 02:48:00;;;;;;;4.22;2.33;;;12.20;99.90;;;;;;4996104;28;20229;-69
2021/10/12 02:50:27;;;;;;;4.93;2.30;;;12.20;99.90;;;;;;4993851;28;20233;-69
2021/10/12 02:52:54;;;;;;;5.50;3.13;;;12.20;99.90;;;;;;4997628;28;20233;-69
2021/10/12 02:55:20;;;;;;;5.10;3.30;;;12.10;99.90;;;;;;5014864;28;20236;-69
2021/10/12 02:57:47;;;;;;;6.85;3.20;;;12.10;99.90;;;;;;5014331;28;20703;-69
2021/10/12 03:00:15;;;;;;;6.25;2.42;;;12.10;99.90;;;;;;5014587;28;20237;-69
2021/10/12 03:02:42;;;;;;;11.15;3.83;;;12.10;99.90;;;;;;5014990;28;20236;-69
2021/10/12 03:05:10;;;;;;;4.60;2.70;;;12.00;99.90;;;;;;5015291;28;20230;-69
2021/10/12 03:07:39;;;;;;;8.88;3.30;;;12.00;99.90;;;;;;5015282;28;20357;-69
2021/10/12 03:10:07;;;;;;;4.30;2.50;;;12.00;99.90;;;;;;5014578;28;20239;-69
2021/10/12 03:12:34;;;;;;;5.85;2.53;;;11.90;99.90;;;;;;5015391;28;20229;-69
2021/10/12 03:15:01;;;;;;;4.03;2.58;;;11.90;99.90;;;;;;5014816;28;20241;-68
2021/10/12 03:17:28;;;;;;;3.35;2.45;;;11.90;99.90;;;;;;5015263;28;20233;-68
2021/10/12 03:19:55;;;;;;;6.43;3.20;;;11.90;99.90;;;;;;5014744;28;20237;-69
2021/10/12 03:22:23;;;;;;;13.70;2.72;;;11.80;99.90;;;;;;5014901;28;20241;-69
2021/10/12 03:24:50;;;;;;;6.32;2.70;;;11.80;99.90;;;;;;5014285;28;20221;-69
2021/10/12 03:27:17;;;;;;;4.38;2.53;;;11.80;99.90;;;;;;5015179;28;20264;-69
2021/10/12 03:29:44;;;;;;;5.65;2.97;;;11.70;99.90;;;;;;5014392;28;20291;-69
2021/10/12 03:32:11;;;;;;;3.47;2.40;;;11.80;99.90;;;;;;5014876;28;20225;-69
2021/10/12 03:34:38;;;;;;;4.90;2.60;;;11.80;99.90;;;;;;5014894;28;20237;-69
2021/10/12 03:37:05;;;;;;;5.90;2.97;;;11.70;99.90;;;;;;5014533;28;20220;-69
2021/10/12 03:39:34;;;;;;;7.93;3.00;;;11.80;99.90;;;;;;5014678;28;20258;-69
2021/10/12 03:42:01;;;;;;;2.58;2.25;;;11.70;99.90;;;;;;5010598;28;20220;-69
2021/10/12 03:44:29;;;;;;;3.67;2.10;;;11.70;99.90;;;;;;5007708;28;20232;-69
2021/10/12 03:46:55;;;;;;;5.63;2.13;;;11.70;99.90;;;;;;5004399;28;20220;-69
2021/10/12 03:49:22;;;;;;;5.50;2.55;;;11.70;99.90;;;;;;4994999;28;20630;-69
2021/10/12 03:51:49;;;;;;;3.92;2.65;;;11.70;99.90;;;;;;4994589;28;20226;-69
2021/10/12 03:54:16;;;;;;;7.13;3.60;;;11.70;99.90;;;;;;4995002;28;20225;-69
2021/10/12 03:56:45;;;;;;;4.90;2.55;;;11.70;99.90;;;;;;5000124;28;20224;-68
2021/10/12 03:59:12;;;;;;;10.77;3.90;;;11.70;99.90;;;;;;5013971;28;20232;-69
2021/10/12 04:01:39;;;;;;;5.35;2.90;;;11.70;99.90;;;;;;5009400;28;20230;-68
2021/10/12 04:04:06;;;;;;;6.97;3.75;;;11.70;99.90;;;;;;4994306;28;20584;-69
2021/10/12 04:06:32;;;;;;;6.57;2.60;;;11.80;99.90;;;;;;4994693;28;20237;-68
2021/10/12 04:08:59;;;;;;;6.70;2.83;;;11.80;99.90;;;;;;4994162;28;20234;-68
2021/10/12 04:11:26;;;;;;;11.98;6.35;;;11.80;99.90;;;;;;4994622;28;20221;-69
2021/10/12 04:13:55;;;;;;;10.57;4.25;;;11.80;99.90;;;;;;4994047;28;20230;-69
2021/10/12 04:16:21;;;;;;;6.75;3.83;;;11.90;99.90;;;;;;4994777;28;20704;-70
2021/10/12 04:18:48;;;;;;;4.78;3.08;;;11.90;99.90;;;;;;4994035;28;20677;-69
2021/10/12 04:21:15;;;;;;;4.95;3.08;;;11.90;99.90;;;;;;4993612;28;20228;-68
2021/10/12 04:23:43;;;;;;;7.47;3.17;;;12.00;99.90;;;;;;4999541;28;20225;-67
2021/10/12 04:26:12;;;;;;;6.80;3.25;;;12.00;99.90;;;;;;5013542;28;20231;-68
2021/10/12 04:28:39;;;;;;;6.93;5.30;;;12.00;99.90;;;;;;5013772;28;20311;-68
2021/10/12 04:31:08;;;;;;;11.50;3.72;;;12.00;99.90;;;;;;5013603;28;20357;-68
2021/10/12 04:33:35;;;;;;;8.05;4.45;;;12.00;99.90;;;;;;5013656;28;20537;-69
2021/10/12 04:36:02;;;;;;;6.00;3.80;;;12.00;99.90;;;;;;5013368;28;20263;-69
2021/10/12 04:38:29;;;;;;;6.55;3.10;;;12.00;99.90;;;;;;5013549;28;20222;-69
2021/10/12 04:40:56;;;;;;;6.82;3.65;;;12.00;99.90;;;;;;5013314;28;20255;-70
2021/10/12 04:43:23;;;;;;;6.93;3.15;;;12.00;99.90;;;;;;5002673;28;20298;-70
2021/10/12 04:45:50;;;;;;;7.40;3.67;;;12.00;99.90;;;;;;5012345;28;20231;-70
2021/10/12 04:48:19;;;;;;;6.70;3.65;;;12.00;99.90;;;;;;4993815;28;20699;-70
2021/10/12 04:50:46;;;;;;;3.55;2.70;;;12.00;99.90;;;;;;4994057;28;20234;-69
2021/10/12 04:53:13;;;;;;;6.60;3.30;;;12.00;99.90;;;;;;4993417;28;20225;-69
2021/10/12 04:55:41;;;;;;;4.80;4.05;;;12.00;99.90;;;;;;4993840;28;20287;-70
2021/10/12 04:58:08;;;;;;;5.63;4.13;;;12.00;99.90;;;;;;5010042;28;20248;-70
2021/10/12 05:00:36;;;;;;;6.68;3.50;;;12.00;99.90;;;;;;5013222;28;20248;-70
2021/10/12 05:03:03;;;;;;;6.82;4.00;;;12.00;99.90;;;;;;4996613;28;20637;-69
2021/10/12 05:05:31;;;;;;;5.95;4.75;;;12.00;99.90;;;;;;4993631;28;20224;-68
2021/10/12 05:07:58;;;;;;;16.77;7.47;;;12.10;99.90;;;;;;4993206;28;20229;-68
2021/10/12 05:10:26;;;;;;;10.10;5.60;;;12.10;99.90;;;;;;4993486;28;20264;-68
2021/10/12 05:12:53;;;;;;;6.32;4.75;;;12.00;99.90;;;;;;4993256;28;20245;-68
2021/10/12 05:15:23;;;;;;;7.25;4.00;;;12.00;99.90;;;;;;4993246;28;20225;-68
2021/10/12 05:17:50;;;;;;;4.25;3.30;;;12.00;99.90;;;;;;4993475;28;20248;-68
2021/10/12 05:20:17;;;;;;;5.57;4.43;;;12.00;99.90;;;;;;4993259;28;20680;-68
2021/10/12 05:22:46;;;;;;;6.10;5.35;;;12.00;99.90;;;;;;4993426;28;20715;-68
2021/10/12 05:25:14;;;;;;;5.65;4.78;;;12.00;99.90;;;;;;5010045;28;20302;-68
2021/10/12 05:27:41;;;;;;;7.05;6.35;;;12.00;99.90;;;;;;5013176;28;20276;-68
2021/10/12 05:30:10;;;;;;;10.07;5.63;;;12.00;99.90;;;;;;5012450;28;20708;-68
2021/10/12 05:32:38;;;;;;;5.70;4.57;;;12.00;99.90;;;;;;5011994;28;20682;-68
2021/10/12 05:35:07;;;;;;;7.53;4.70;;;11.90;99.90;;;;;;5012608;28;20592;-68
2021/10/12 05:37:34;;;;;;;7.32;3.95;;;11.90;99.90;;;;;;5012852;28;20221;-68
2021/10/12 05:40:04;;;;;;;29.67;13.85;;;11.90;99.90;;;;;;5012332;28;20231;-69
2021/10/12 05:42:31;;;;;;;9.02;5.90;;;11.90;99.90;;;;;;5005000;28;20236;-68
2021/10/12 05:44:58;;;;;;;6.25;4.07;;;11.80;99.90;;;;;;5009623;28;20241;-68
2021/10/12 05:47:25;;;;;;;3.58;3.17;;;11.90;99.90;;;;;;4999038;28;20236;-68
2021/10/12 05:49:52;;;;;;;4.22;3.13;;;11.90;99.90;;;;;;4993166;28;20233;-68
2021/10/12 05:52:21;;;;;;;4.78;2.90;;;11.90;99.90;;;;;;4992682;28;20222;-68
2021/10/12 05:54:51;;;;;;;4.15;3.45;;;11.90;99.90;;;;;;4992958;28;20228;-68
2021/10/12 05:57:34;;;;;;;3.10;2.80;;;11.90;99.90;;;;;;5002706;28;20303;-68
2021/10/12 06:00:02;;;;;;;4.72;2.97;;;11.90;99.90;;;;;;5011945;28;20229;-68
2021/10/12 06:02:29;;;;;;;4.70;3.13;;;11.90;99.90;;;;;;5012277;28;20614;-68
2021/10/12 06:04:56;;;;;;;3.88;3.38;;;11.90;99.90;;;;;;5012170;28;20239;-68
2021/10/12 06:07:23;;;;;;;6.47;3.85;;;11.90;99.90;;;;;;5012776;28;20236;-68
2021/10/12 06:09:50;;;;;;;7.38;4.32;;;11.90;99.90;;;;;;5012395;28;20232;-69
2021/10/12 06:12:16;;;;;;;5.00;4.18;;;11.90;99.90;;;;;;5012127;28;20229;-69
2021/10/12 06:14:45;;;;;;;4.45;3.90;;;11.90;99.90;;;;;;5012694;28;20303;-69
2021/10/12 06:17:12;;;;;;;6.82;3.33;;;11.90;99.90;;;;;;5011776;28;20235;-69
2021/10/12 06:19:39;;;;;;;5.50;4.47;;;11.90;99.90;;;;;;5012338;28;20755;-68
2021/10/12 06:22:06;;;;;;;5.20;3.55;;;12.00;99.90;;;;;;5012066;28;20285;-68
2021/10/12 06:24:33;;;;;;;4.75;3.85;;;12.00;99.90;;;;;;5012302;28;20290;-69
2021/10/12 06:27:00;;;;;;;5.10;4.18;;;12.00;99.90;;;;;;5012077;28;20229;-68
2021/10/12 06:29:27;;;;;;;8.93;4.78;;;12.00;99.90;;;;;;5012181;28;20233;-69
2021/10/12 06:31:55;;;;;;;5.95;4.88;;;12.00;99.90;;;;;;5012350;28;20237;-69
2021/10/12 06:34:22;;;;;;;6.75;4.00;;;12.00;99.90;;;;;;5012064;28;20687;-68
2021/10/12 06:36:49;;;;;;;7.05;5.40;;;12.00;99.90;;;;;;5012282;28;20261;-69
2021/10/12 06:39:16;;;;;;;7.70;6.28;;;12.10;99.90;;;;;;5011585;28;20237;-69
2021/10/12 06:41:42;;;;;;;7.05;5.68;;;12.10;99.90;;;;;;5012289;28;20218;-69
2021/10/12 06:44:10;;;;;;;7.25;6.55;;;12.10;99.90;;;;;;5002502;28;20275;-69
2021/10/12 06:46:37;;;;;;;5.82;5.18;;;12.10;99.90;;;;;;4996029;28;20312;-69
2021/10/12 06:49:05;;;;;;;5.93;5.30;;;12.10;99.90;;;;;;4995682;28;20316;-68
2021/10/12 06:51:33;;;;;;;6.68;5.75;;;12.10;99.90;;;;;;4996193;28;20230;-69
2021/10/12 06:54:00;;;;;;;7.15;4.13;;;12.20;99.90;;;;;;4995304;28;20313;-69
2021/10/12 06:56:27;;;;;;;9.15;5.90;;;12.20;99.90;;;;;;4999124;28;20607;-69
2021/10/12 06:58:53;;;;;;;7.97;5.20;;;12.20;99.90;;;;;;5015325;28;20341;-69
2021/10/12 07:01:21;;;;;;;5.03;4.03;;;12.30;99.90;;;;;;5014908;28;20279;-69
2021/10/12 07:03:48;;;;;;;6.25;4.30;;;12.30;99.90;;;;;;5015523;28;20241;-69
2021/10/12 07:06:17;;;;;;;7.45;5.28;;;12.40;99.90;;;;;;5015088;28;20290;-69
2021/10/12 07:08:44;;;;;;;10.43;6.95;;;12.40;99.90;;;;;;5015231;28;20237;-69
2021/10/12 07:11:11;;;;;;;6.03;4.55;;;12.40;99.90;;;;;;5015055;28;20232;-69
2021/10/12 07:13:38;;;;;;;6.15;3.70;;;12.50;99.90;;;;;;5015299;28;20230;-69
2021/10/12 07:16:06;;;;;;;4.18;3.30;;;12.50;99.90;;;;;;5015046;28;20549;-69
2021/10/12 07:18:33;;;;;;;5.20;3.50;;;12.50;99.90;;;;;;5015257;28;20747;-69
2021/10/12 07:20:59;;;;;;;4.07;3.70;;;12.60;99.90;;;;;;5015003;28;20225;-69
2021/10/12 07:23:28;;;;;;;3.50;2.75;;;12.60;99.90;;;;;;5014770;28;20545;-69
2021/10/12 07:25:54;;;;;;;3.65;2.78;;;12.60;99.90;;;;;;5014983;28;20287;-69
2021/10/12 07:28:21;;;;;;;3.78;3.05;;;12.50;99.90;;;;;;5014427;28;20766;-69
2021/10/12 07:30:48;;;;;;;2.85;2.55;;;12.50;99.90;;;;;;5015030;28;20225;-69
2021/10/12 07:33:15;;;;;;;4.65;3.10;;;12.50;99.90;;;;;;5014458;28;20229;-69
2021/10/12 07:35:43;;;;;;;6.63;2.92;;;12.50;99.90;;;;;;5014900;28;20229;-69
2021/10/12 07:38:12;;;;;;;4.65;3.75;;;12.50;99.90;;;;;;5014189;28;20240;-68
2021/10/12 07:40:42;;;;;;;2.92;2.70;;;12.50;99.90;;;;;;5014645;28;20323;-69
2021/10/12 07:43:08;;;;;;;4.00;2.45;;;12.50;99.90;;;;;;5003488;28;20312;-68
2021/10/12 07:45:35;;;;;;;2.30;2.10;;;12.50;99.90;;;;;;5014933;28;20742;-68
2021/10/12 07:48:03;;;;;;;3.55;2.70;;;12.60;99.90;;;;;;4995638;28;20261;-69
2021/10/12 07:50:29;;;;;;;3.63;2.85;;;12.60;99.90;;;;;;4994745;28;20666;-68
2021/10/12 07:52:56;;;;;;;2.70;2.30;;;12.70;99.90;;;;;;5003271;28;20222;-68
2021/10/12 07:55:29;;;;;;;7.30;2.40;;;12.60;99.90;;;;;;4993485;28;20260;-69
2021/10/12 07:58:01;;;;;;;3.75;3.10;;;12.70;99.90;;;;;;5009833;28;20318;-68
2021/10/12 08:00:30;;;;;;;4.43;1.90;;;12.70;99.90;;;;;;5013911;28;20301;-68
2021/10/12 08:02:57;;;;;;;3.17;2.13;;;12.70;99.90;;;;;;5011055;28;20254;-69
2021/10/12 08:05:25;;;;;;;2.50;2.10;;;12.80;99.90;;;;;;5013784;28;20695;-68
2021/10/12 08:07:52;;;;;;;2.75;1.90;;;12.80;99.90;;;;;;5014533;28;20229;-68
2021/10/12 08:10:19;;;;;;;5.35;2.88;;;12.70;99.90;;;;;;5013757;28;20778;-68
2021/10/12 08:12:48;;;;;;;4.30;2.45;;;12.60;99.90;;;;;;5014174;28;20287;-68
2021/10/12 08:15:17;;;;;;;3.00;1.98;;;12.60;99.90;;;;;;5013750;28;20240;-68
2021/10/12 08:17:44;;;;;;;2.95;2.20;;;12.60;99.90;;;;;;5013989;28;20232;-68
2021/10/12 08:20:11;;;;;;;3.17;2.22;;;12.60;99.90;;;;;;5013439;28;20237;-68
2021/10/12 08:22:38;;;;;;;2.10;1.90;;;12.60;99.90;;;;;;5014184;28;20292;-68
2021/10/12 08:25:07;;;;;;;2.45;1.67;;;12.60;99.90;;;;;;5013684;28;20244;-69
2021/10/12 08:27:35;;;;;;;7.43;2.30;;;12.60;99.90;;;;;;5013724;28;20268;-69
2021/10/12 08:30:02;;;;;;;2.72;1.70;;;12.60;99.90;;;;;;5013970;28;20308;-69
2021/10/12 08:32:30;;;;;;;5.50;2.10;;;12.60;99.90;;;;;;5013341;28;20813;-69
2021/10/12 08:34:57;;;;;;;2.60;2.40;;;12.60;99.90;;;;;;5013877;28;20229;-69
2021/10/12 08:37:24;;;;;;;4.20;3.30;;;12.70;99.90;;;;;;5013489;28;20549;-69
2021/10/12 08:39:51;;;;;;;6.30;2.95;;;12.70;99.90;;;;;;5013428;28;20237;-69
2021/10/12 08:42:24;;;;;;;6.13;5.30;;;12.70;99.90;;;;;;5013138;28;20236;-69
2021/10/12 08:44:55;;;;;;;4.22;3.58;;;12.60;99.90;;;;;;4997686;28;20628;-69
2021/10/12 08:47:24;;;;;;;4.43;2.55;;;12.60;99.90;;;;;;4993448;28;20702;-69
2021/10/12 08:49:54;;;;;;;4.50;2.03;;;12.70;99.90;;;;;;4993793;28;20296;-69
2021/10/12 08:52:22;;;;;;;5.00;2.30;;;12.70;99.90;;;;;;4993578;28;20723;-69
2021/10/12 08:54:49;;;;;;;2.60;2.40;;;12.80;99.90;;;;;;4993952;28;20307;-69
2021/10/12 08:57:28;;;;;;;2.85;2.33;;;12.90;99.90;;;;;;5003085;28;20225;-69
2021/10/12 08:59:58;;;;;;;4.18;3.15;;;12.90;99.90;;;;;;5012989;28;20253;-69
2021/10/12 09:02:26;;;;;;;5.05;3.78;;;12.90;99.90;;;;;;5009773;28;20762;-69
2021/10/12 09:04:55;;;;;;;2.88;2.65;;;12.90;99.90;;;;;;5013170;28;20269;-69
2021/10/12 09:07:24;;;;;;;4.88;3.10;;;12.90;99.90;;;;;;5012573;28;20287;-69
2021/10/12 09:09:53;;;;;;;5.38;2.60;;;12.80;99.90;;;;;;5013113;28;20226;-69
2021/10/12 09:12:38;;;;;;;5.13;2.58;;;12.90;99.90;;;;;;5012727;28;20230;-69
2021/10/12 09:15:06;;;;;;;2.58;1.88;;;12.90;99.90;;;;;;5013140;28;20592;-69
2021/10/12 09:17:34;;;;;;;2.50;1.73;;;12.90;99.90;;;;;;5012729;28;20671;-69
2021/10/12 09:20:26;;;;;;;4.22;3.13;;;12.80;99.90;;;;;;5013155;28;20234;-69
2021/10/12 09:23:06;;;;;;;6.35;4.53;;;12.80;99.90;;;;;;5013464;28;20303;-69
2021/10/12 09:25:35;;;;;;;4.10;3.10;;;12.70;99.90;;;;;;4993603;28;20226;-69
2021/10/12 09:28:02;;;;;;;4.47;2.10;;;12.60;99.90;;;;;;5001279;28;20309;-69
2021/10/12 09:30:31;;;;;;;1.63;1.30;;;12.60;99.90;;;;;;4993116;28;20308;-68
2021/10/12 09:33:04;;;;;;;3.08;1.80;;;12.70;99.90;;;;;;4992981;28;20287;-68
2021/10/12 09:35:32;;;;;;;6.65;2.03;;;12.80;99.90;;;;;;4993168;28;20225;-68
2021/10/12 09:38:05;;;;;;;6.30;1.67;;;12.80;99.90;;;;;;4992858;28;20234;-69
2021/10/12 09:40:33;;;;;;;2.40;1.90;;;12.90;99.90;;;;;;4993224;28;20238;-69
2021/10/12 09:43:00;;;;;;;1.67;1.40;;;13.00;99.90;;;;;;5003326;28;20222;-68
2021/10/12 09:45:38;;;;;;;2.75;1.67;;;13.10;99.90;;;;;;4993123;28;20677;-68
2021/10/12 09:48:30;;;;;;;10.52;3.42;;;13.20;99.90;;;;;;4992854;28;20224;-69
2021/10/12 09:51:08;;;;;;;3.10;1.80;;;13.20;99.90;;;;;;4992548;28;20265;-69
2021/10/12 09:53:37;;;;;;;1.75;1.65;;;13.20;99.90;;;;;;4992926;28;20305;-69
2021/10/12 09:56:04;;;;;;;2.35;2.15;;;13.30;99.90;;;;;;4992661;28;20688;-69
2021/10/12 09:58:32;;;;;;;4.95;3.90;;;13.30;99.90;;;;;;4992973;28;20267;-68
2021/10/12 10:01:01;;;;;;;5.88;5.20;;;13.40;99.90;;;;;;4992462;28;20712;-69
2021/10/12 10:03:29;;;;;;;8.00;5.75;;;13.40;99.90;;;;;;5012741;28;20230;-69
2021/10/12 10:06:00;;;;;;;3.80;2.83;;;13.50;99.90;;;;;;5012104;28;20314;-69
2021/10/12 10:08:30;;;;;;;4.07;2.00;;;13.50;99.90;;;;;;5012438;28;20523;-67
2021/10/12 10:10:59;;;;;;;3.38;2.47;;;13.50;99.90;;;;;;5012074;28;20321;-70
2021/10/12 10:13:27;;;;;;;4.43;2.20;;;13.50;99.90;;;;;;5012604;28;20706;-70
2021/10/12 10:15:55;;;;;;;5.28;3.03;;;13.50;99.90;;;;;;5012075;28;20234;-70
2021/10/12 10:18:22;;;;;;;6.75;3.50;;;13.50;99.90;;;;;;5012437;28;20234;-70
2021/10/12 10:20:51;;;;;;;3.08;2.05;;;13.50;99.90;;;;;;5015690;28;20226;-69
2021/10/12 10:23:53;;;;;;;2.35;1.33;;;13.60;99.90;;;;;;5016195;28;20304;-70
2021/10/12 10:26:26;;;;;;;3.05;1.30;;;13.60;99.90;;;;;;5016595;28;20698;-70
2021/10/12 10:28:55;;;;;;;2.17;1.10;;;13.70;99.90;;;;;;5015731;28;20229;-67
2021/10/12 10:31:42;;;;;;;2.47;1.70;;;13.70;99.90;;;;;;5016076;28;20788;-68
2021/10/12 10:34:43;;;;;;;2.90;1.67;;;13.80;99.90;;;;;;5015689;28;20468;-68
2021/10/12 10:37:33;;;;;;;13.07;11.40;;;13.70;99.90;;;;;;4974449;28;20873;-68
2021/10/12 10:40:27;;;;;;;8.10;5.20;;;13.70;99.90;;;;;;4974661;28;20243;-67
2021/10/12 10:43:00;;;;;;;4.93;2.67;;;13.80;99.90;;;;;;5007103;28;20225;-67
2021/10/12 10:45:43;;;;;;;1.70;1.60;;;13.90;99.90;;;;;;4999524;28;20581;-68
2021/10/12 10:48:12;;;;;;;2.73;1.97;;;13.90;99.90;;;;;;4997560;28;20461;-68
2021/10/12 10:50:39;;;;;;;3.30;1.93;;;13.90;99.90;;;;;;5015793;28;20473;-68
2021/10/12 10:53:09;;;;;;;5.82;2.10;;;14.00;99.90;;;;;;5015141;28;20493;-69
2021/10/12 10:55:37;;;;;;;4.55;2.72;;;14.00;99.90;;;;;;5015443;28;20226;-69
2021/10/12 10:58:12;;;;;;;3.35;2.05;;;14.00;99.90;;;;;;5015128;28;20237;-70
2021/10/12 11:00:44;;;;;;;2.22;1.65;;;14.10;99.90;;;;;;5015336;28;20225;-70
2021/10/12 11:03:35;;;;;;;2.65;2.40;;;14.10;99.90;;;;;;5012659;28;20284;-69
2021/10/12 11:06:03;;;;;;;2.90;2.60;;;14.10;99.50;;;;;;5015066;28;20314;-70
2021/10/12 11:08:32;;;;;;;2.85;1.40;;;14.10;99.40;;;;;;5015361;28;20865;-71
2021/10/12 11:11:01;;;;;;;3.60;1.42;;;14.10;98.80;;;;;;5015012;28;20238;-69
2021/10/12 11:13:34;;;;;;;1.57;1.20;;;14.20;98.60;;;;;;5015391;28;20225;-69
2021/10/12 11:16:02;;;;;;;1.83;1.40;;;14.20;98.60;;;;;;5014708;28;20846;-69
2021/10/12 11:18:29;;;;;;;2.63;1.20;;;14.30;98.40;;;;;;5015181;28;20527;-69
2021/10/12 11:20:58;;;;;;;3.55;1.20;;;14.40;98.10;;;;;;5014802;28;20528;-68
2021/10/12 11:23:28;;;;;;;1.57;1.20;;;14.50;98.10;;;;;;5014885;28;20296;-69
2021/10/12 11:26:01;;;;;;;1.85;1.00;;;14.60;98.20;;;;;;5014783;28;20471;-69
2021/10/12 11:28:32;;;;;;;8.67;3.20;;;14.70;98.00;;;;;;5014820;28;20233;-69
2021/10/12 11:31:02;;;;;;;2.95;2.08;;;14.70;97.50;;;;;;5014407;28;20983;-69
2021/10/12 11:33:34;;;;;;;1.83;1.50;;;14.60;97.60;;;;;;5014988;28;20680;-69
2021/10/12 11:36:02;;;;;;;3.05;1.70;;;14.60;97.50;;;;;;5014525;28;20665;-69
2021/10/12 11:38:33;;;;;;;4.07;2.00;;;14.60;97.50;;;;;;5014592;28;20249;-68
2021/10/12 11:41:11;;;;;;;6.25;4.75;;;14.60;97.40;;;;;;5014316;28;20473;-68
2021/10/12 11:43:40;;;;;;;3.92;3.50;;;14.50;97.20;;;;;;5008658;28;20308;-69
2021/10/12 11:46:07;;;;;;;2.38;1.98;;;14.40;97.10;;;;;;4994588;28;20716;-69
2021/10/12 11:48:35;;;;;;;2.27;1.30;;;14.40;97.00;;;;;;4994853;28;20301;-69
2021/10/12 11:51:20;;;;;;;14.27;8.52;;;14.50;97.00;;;;;;4994779;28;20481;-69
2021/10/12 11:53:48;;;;;;;62.10;45.30;;;14.50;99.90;;;;;;4995047;28;20628;-68
2021/10/12 11:56:17;;;;;;;9.90;6.70;;;14.80;99.90;;;;;;4995656;28;20523;-68
2021/10/12 11:58:45;;;;;;;4.70;3.30;;;14.90;99.90;;;;;;5008837;28;20547;-69
2021/10/12 12:01:17;;;;;;;5.90;3.47;;;15.00;98.90;;;;;;5004270;28;20473;-68
2021/10/12 12:03:44;;;;;;;3.80;1.50;;;15.00;97.80;;;;;;5005449;28;20532;-68
2021/10/12 12:06:12;;;;;;;4.00;1.40;;;15.10;96.50;;;;;;5004978;28;20998;-69
2021/10/12 12:08:42;;;;;;;1.90;1.40;;;15.10;95.80;;;;;;5012677;28;20519;-68
2021/10/12 12:11:09;;;;;;;2.77;1.40;;;15.10;95.30;;;;;;5009295;28;20556;-69
2021/10/12 12:13:37;;;;;;;4.63;2.47;;;15.00;95.00;;;;;;5010593;28;20468;-69
2021/10/12 12:16:07;;;;;;;3.53;2.87;;;14.90;95.10;;;;;;5012423;28;20663;-69
2021/10/12 12:18:40;;;;;;;1.57;1.20;;;14.90;95.00;;;;;;5001833;28;20858;-68
2021/10/12 12:21:07;;;;;;;2.20;1.90;;;14.80;94.70;;;;;;4998874;28;20561;-69
2021/10/12 12:23:37;;;;;;;6.63;3.40;;;14.80;94.40;;;;;;5007475;28;20472;-69
2021/10/12 12:26:06;;;;;;;4.73;2.40;;;14.60;93.40;;;;;;5006438;28;20482;-69
2021/10/12 12:28:34;;;;;;;4.93;3.87;;;14.70;93.50;;;;;;5001042;28;20465;-69
2021/10/12 12:31:19;;;;;;;3.60;3.03;;;14.60;92.90;;;;;;4998384;28;20949;-69
2021/10/12 12:33:47;;;;;;;2.72;2.05;;;14.50;92.40;;;;;;5001947;28;20481;-69
2021/10/12 12:36:14;;;;;;;1.90;1.50;;;14.60;92.70;;;;;;4993604;28;20289;-69
2021/10/12 12:38:42;;;;;;;6.87;4.80;;;14.60;92.90;;;;;;5003139;28;20484;-69
2021/10/12 12:41:20;;;;;;;8.23;5.00;;;14.60;93.30;;;;;;5010983;28;20531;-69
2021/10/12 12:43:55;;;;;;;6.93;5.10;;;14.50;93.50;;;;;;5005749;28;20241;-68
2021/10/12 12:46:24;;;;;;;5.63;3.70;;;14.60;93.90;;;;;;5000692;28;20453;-68
2021/10/12 12:49:07;;;;;;;4.87;3.40;;;14.60;93.80;;;;;;4994847;28;20819;-68
2021/10/12 12:51:36;;;;;;;5.77;3.80;;;14.70;93.80;;;;;;4996973;28;20458;-68
2021/10/12 12:54:02;;;;;;;7.17;4.90;;;14.70;93.70;;;;;;4999748;28;20483;-68